Swift, Minnesota
Current Conditions -  °F | °C
As of 3:54 AM on Tuesday 21 Oct 2014 (Local Time) from KRRT Reporting Station
Clear Clear  
Wind Chill: 30°   Ceiling: Unl
Heat Index: 36°   Visibility: 10mi
Dew Point: 30°   Wind: 7mph
Humidity: 81%   Direction: 130°SE
Pressure: 30.12"   Gusts: NA
Location:  48.85°N, 95.22°W
Report Text: KRRT 210854Z AUTO 13006KT 10SM CLR 02/M01 A3012 RMK AO2
Loading
Personal Weather Stations






























Interactive Weather Map
Tropical Storm Tracking
New forecast layout! Learn more

10-Day Weather Forecast

Advertisements
Track Severe Weather on mobile